Time;durP1;ratioP1;P1;durP2;ratioP2;P2;SDS_P1;SDS_P2;PMS_P1;PMS_P2;Temp;Humidity;BMP_temperature;BMP_pressure;BME280_temperature;BME280_humidity;BME280_pressure;Samples;Min_cycle;Max_cycle;Signal;HPM_P1;HPM_P2
2023/08/11 00:00:32;;;;;;;6.07;4.37;;;;;16.20;101586.00;;;;5019022;28;20712;-67
2023/08/11 00:03:20;;;;;;;5.70;4.17;;;;;16.20;101592.00;;;;5019130;28;20263;-67
2023/08/11 00:06:07;;;;;;;5.47;4.07;;;;;16.10;101589.00;;;;5032853;28;20332;-67
2023/08/11 00:08:54;;;;;;;6.50;4.40;;;;;16.10;101592.00;;;;5036423;28;20634;-67
2023/08/11 00:11:41;;;;;;;5.30;4.20;;;;;16.10;101588.00;;;;5026522;28;20237;-67
2023/08/11 00:14:28;;;;;;;6.10;4.30;;;;;16.10;101594.00;;;;5020989;28;20303;-67
2023/08/11 00:17:14;;;;;;;8.13;4.23;;;;;16.10;101594.00;;;;5020087;28;20267;-67
2023/08/11 00:20:06;;;;;;;6.27;4.20;;;;;16.00;101585.00;;;;5027547;28;20237;-67
2023/08/11 00:22:52;;;;;;;8.20;4.70;;;;;16.00;101590.00;;;;5024274;28;20259;-67
2023/08/11 00:25:38;;;;;;;6.53;3.93;;;;;16.00;101589.00;;;;5042897;28;20240;-67
2023/08/11 00:28:26;;;;;;;4.87;3.90;;;;;16.00;101590.00;;;;5024814;28;20260;-67
2023/08/11 00:31:14;;;;;;;4.97;3.97;;;;;16.00;101594.00;;;;5023272;28;20224;-67
2023/08/11 00:34:01;;;;;;;5.23;4.40;;;;;16.00;101595.00;;;;5040549;28;20960;-67
2023/08/11 00:36:49;;;;;;;6.93;4.00;;;;;16.00;101589.00;;;;5039763;28;20697;-65
2023/08/11 00:39:36;;;;;;;5.00;4.23;;;;;16.00;101594.00;;;;5034938;28;20303;-67
2023/08/11 00:42:22;;;;;;;5.93;4.43;;;;;15.90;101594.00;;;;5039060;28;20602;-67
2023/08/11 00:45:09;;;;;;;5.13;4.20;;;;;15.90;101584.00;;;;5021339;28;20236;-67
2023/08/11 00:47:57;;;;;;;8.20;4.37;;;;;15.90;101582.00;;;;5021614;28;20607;-66
2023/08/11 00:50:43;;;;;;;6.97;4.23;;;;;15.90;101582.00;;;;5043193;28;20249;-66
2023/08/11 00:53:32;;;;;;;4.77;4.10;;;;;15.90;101583.00;;;;5040895;28;20228;-67
2023/08/11 00:56:20;;;;;;;7.20;4.13;;;;;15.90;101584.00;;;;5046717;28;20221;-65
2023/08/11 00:59:09;;;;;;;6.07;4.77;;;;;15.80;101573.00;;;;5041909;28;20357;-66
2023/08/11 01:01:56;;;;;;;6.67;4.33;;;;;15.80;101574.00;;;;5025815;28;20283;-67
2023/08/11 01:04:42;;;;;;;13.50;4.37;;;;;15.70;101574.00;;;;5026393;28;20822;-67
2023/08/11 01:07:38;;;;;;;8.00;4.40;;;;;15.70;101568.00;;;;5025936;28;21043;-66
2023/08/11 01:10:34;;;;;;;6.50;4.47;;;;;15.70;101571.00;;;;5023351;28;20305;-66
2023/08/11 01:13:20;;;;;;;6.07;4.37;;;;;15.70;101564.00;;;;5023387;28;20803;-66
2023/08/11 01:16:09;;;;;;;5.97;4.60;;;;;15.70;101573.00;;;;5022017;28;20276;-66
2023/08/11 01:18:57;;;;;;;7.60;4.33;;;;;15.60;101563.00;;;;5043030;28;20726;-66
2023/08/11 01:21:46;;;;;;;7.53;4.40;;;;;15.60;101567.00;;;;5028225;28;20307;-67
2023/08/11 01:24:34;;;;;;;6.63;4.20;;;;;15.60;101561.00;;;;5013124;28;20319;-67
2023/08/11 01:27:21;;;;;;;8.40;4.40;;;;;15.60;101552.00;;;;5022474;28;20315;-67
2023/08/11 01:30:08;;;;;;;8.00;4.20;;;;;15.60;101556.00;;;;5024378;28;20259;-66
2023/08/11 01:32:56;;;;;;;7.87;4.70;;;;;15.60;101545.00;;;;5023516;28;20239;-66
2023/08/11 01:35:42;;;;;;;6.97;4.80;;;;;15.60;101544.00;;;;5027503;28;20272;-67
2023/08/11 01:38:28;;;;;;;7.00;4.37;;;;;15.50;101546.00;;;;5021420;28;20316;-67
2023/08/11 01:41:17;;;;;;;7.20;4.70;;;;;15.50;101554.00;;;;5021347;28;20314;-67
2023/08/11 01:44:05;;;;;;;6.50;4.50;;;;;15.60;101558.00;;;;5024057;28;20233;-65
2023/08/11 01:46:54;;;;;;;7.37;4.37;;;;;15.50;101557.00;;;;5022177;28;20256;-66
2023/08/11 01:49:41;;;;;;;9.93;4.47;;;;;15.50;101558.00;;;;5019146;28;20240;-66
2023/08/11 01:52:27;;;;;;;7.77;4.40;;;;;15.50;101560.00;;;;5021181;28;20615;-66
2023/08/11 01:55:15;;;;;;;8.77;4.43;;;;;15.50;101552.00;;;;5034402;28;20308;-66
2023/08/11 01:58:03;;;;;;;9.93;4.50;;;;;15.50;101548.00;;;;5040067;28;20225;-67
2023/08/11 02:00:50;;;;;;;5.60;4.23;;;;;15.50;101545.00;;;;5027690;28;20944;-67
2023/08/11 02:03:37;;;;;;;5.90;4.67;;;;;15.50;101545.00;;;;5023818;28;20747;-67
2023/08/11 02:06:23;;;;;;;6.20;4.80;;;;;15.50;101544.00;;;;5013533;28;20236;-67
2023/08/11 02:09:12;;;;;;;6.20;4.20;;;;;15.50;101554.00;;;;5024029;28;20392;-67
2023/08/11 02:11:59;;;;;;;6.13;4.40;;;;;15.40;101554.00;;;;5039854;28;20254;-66
2023/08/11 02:14:46;;;;;;;5.47;4.37;;;;;15.50;101547.00;;;;5028559;28;20804;-65
2023/08/11 02:17:33;;;;;;;4.60;4.03;;;;;15.40;101546.00;;;;5036204;28;20336;-67
2023/08/11 02:20:21;;;;;;;7.03;5.07;;;;;15.40;101538.00;;;;5028670;28;20225;-67
2023/08/11 02:23:08;;;;;;;5.90;4.80;;;;;15.40;101532.00;;;;5024640;28;20707;-67
2023/08/11 02:25:55;;;;;;;8.27;4.90;;;;;15.40;101524.00;;;;5026063;28;20247;-67
2023/08/11 02:28:42;;;;;;;7.60;4.77;;;;;15.40;101526.00;;;;5022087;28;20235;-67
2023/08/11 02:31:31;;;;;;;7.20;4.90;;;;;15.40;101525.00;;;;5023083;28;20222;-67
2023/08/11 02:34:17;;;;;;;6.07;4.63;;;;;15.40;101523.00;;;;5024470;28;20246;-67
2023/08/11 02:37:04;;;;;;;5.60;4.90;;;;;15.40;101521.00;;;;5024818;28;20272;-67
2023/08/11 02:39:50;;;;;;;9.27;4.60;;;;;15.40;101517.00;;;;5037949;28;20228;-67
2023/08/11 02:42:39;;;;;;;7.13;4.63;;;;;15.30;101524.00;;;;5030913;28;20235;-65
2023/08/11 02:45:26;;;;;;;6.67;4.77;;;;;15.30;101526.00;;;;5022592;28;20365;-66
2023/08/11 02:48:15;;;;;;;7.13;4.90;;;;;15.30;101516.00;;;;5024278;28;20244;-66
2023/08/11 02:51:02;;;;;;;7.57;4.63;;;;;15.30;101513.00;;;;5025376;28;20780;-65
2023/08/11 02:53:48;;;;;;;6.00;5.03;;;;;15.30;101507.00;;;;5019738;28;20615;-66
2023/08/11 02:56:36;;;;;;;6.10;4.87;;;;;15.30;101510.00;;;;5018264;28;20281;-66
2023/08/11 02:59:23;;;;;;;7.70;5.47;;;;;15.30;101499.00;;;;5034248;28;20356;-67
2023/08/11 03:02:09;;;;;;;7.07;5.53;;;;;15.30;101503.00;;;;5025297;28;20332;-66
2023/08/11 03:04:58;;;;;;;9.30;5.73;;;;;15.30;101506.00;;;;5019516;28;20241;-67
2023/08/11 03:07:44;;;;;;;6.57;5.47;;;;;15.30;101506.00;;;;5018544;28;20231;-67
2023/08/11 03:10:30;;;;;;;7.07;4.87;;;;;15.30;101514.00;;;;5018395;28;20361;-68
2023/08/11 03:13:36;;;;;;;8.07;5.43;;;;;15.30;101504.00;;;;5013148;28;20234;-67
2023/08/11 03:16:25;;;;;;;12.23;6.60;;;;;15.30;101508.00;;;;5026534;28;20240;-67
2023/08/11 03:19:11;;;;;;;7.37;5.60;;;;;15.30;101514.00;;;;5022413;28;20317;-67
2023/08/11 03:21:59;;;;;;;10.30;6.47;;;;;15.30;101500.00;;;;5026883;28;20684;-66
2023/08/11 03:24:46;;;;;;;10.20;6.47;;;;;15.30;101504.00;;;;5035418;28;20360;-67
2023/08/11 03:27:34;;;;;;;10.27;6.23;;;;;15.30;101502.00;;;;5035702;28;20717;-67
2023/08/11 03:30:20;;;;;;;9.57;5.87;;;;;15.30;101506.00;;;;5026811;28;20232;-67
2023/08/11 03:33:06;;;;;;;7.80;6.17;;;;;15.30;101506.00;;;;5032797;28;20781;-66
2023/08/11 03:35:53;;;;;;;9.07;6.33;;;;;15.30;101499.00;;;;5020968;28;20946;-67
2023/08/11 03:38:41;;;;;;;9.07;6.30;;;;;15.30;101500.00;;;;5034292;28;20236;-67
2023/08/11 03:41:28;;;;;;;12.13;6.93;;;;;15.30;101509.00;;;;5023268;28;20326;-66
2023/08/11 03:44:14;;;;;;;8.67;7.00;;;;;15.30;101499.00;;;;5032834;28;20374;-65
2023/08/11 03:47:01;;;;;;;9.37;6.60;;;;;15.20;101499.00;;;;5031672;28;20273;-67
2023/08/11 03:49:47;;;;;;;12.30;6.40;;;;;15.20;101497.00;;;;5023650;28;20234;-67
2023/08/11 03:52:34;;;;;;;11.10;6.93;;;;;15.20;101494.00;;;;5020904;28;20592;-67
2023/08/11 03:55:22;;;;;;;12.50;6.50;;;;;15.20;101496.00;;;;5020387;28;20237;-66
2023/08/11 03:58:09;;;;;;;10.10;6.20;;;;;15.20;101495.00;;;;5043194;28;20248;-65
2023/08/11 04:00:55;;;;;;;8.47;6.03;;;;;15.20;101494.00;;;;5045135;28;20651;-67
2023/08/11 04:03:42;;;;;;;9.87;6.43;;;;;15.20;101492.00;;;;5020882;28;20741;-67
2023/08/11 04:06:32;;;;;;;10.33;6.37;;;;;15.20;101497.00;;;;5024315;28;20242;-67
2023/08/11 04:09:19;;;;;;;7.97;5.97;;;;;15.20;101497.00;;;;5014579;28;20620;-67
2023/08/11 04:12:07;;;;;;;13.77;6.87;;;;;15.20;101493.00;;;;5018536;28;20247;-66
2023/08/11 04:14:54;;;;;;;11.10;6.70;;;;;15.20;101500.00;;;;5022072;28;20305;-67
2023/08/11 04:17:41;;;;;;;11.47;6.80;;;;;15.10;101502.00;;;;5026149;28;20248;-66
2023/08/11 04:20:28;;;;;;;13.23;6.30;;;;;15.20;101500.00;;;;5015920;28;20389;-67
2023/08/11 04:23:15;;;;;;;14.27;6.20;;;;;15.10;101499.00;;;;5026049;28;20264;-67
2023/08/11 04:26:02;;;;;;;11.80;6.10;;;;;15.20;101511.00;;;;5023276;28;20234;-67
2023/08/11 04:28:50;;;;;;;8.70;5.70;;;;;15.20;101507.00;;;;5020497;28;20229;-67
2023/08/11 04:31:37;;;;;;;8.00;5.50;;;;;15.20;101510.00;;;;5024139;28;20271;-66
2023/08/11 04:34:23;;;;;;;11.43;5.77;;;;;15.20;101503.00;;;;5025725;28;20314;-67
2023/08/11 04:37:10;;;;;;;8.20;6.13;;;;;15.20;101507.00;;;;5014468;28;20349;-67
2023/08/11 04:39:56;;;;;;;12.30;6.83;;;;;15.20;101502.00;;;;5024857;28;20282;-67
2023/08/11 04:42:43;;;;;;;7.77;5.87;;;;;15.30;101496.00;;;;5027549;28;20282;-66
2023/08/11 04:45:31;;;;;;;9.40;6.67;;;;;15.30;101506.00;;;;5027817;28;22656;-67
2023/08/11 04:48:18;;;;;;;9.27;5.70;;;;;15.30;101498.00;;;;5034642;28;20228;-67
2023/08/11 04:51:04;;;;;;;12.67;6.27;;;;;15.30;101496.00;;;;5025492;28;20233;-67
2023/08/11 04:53:51;;;;;;;9.07;6.57;;;;;15.30;101486.00;;;;5023705;28;20229;-67
2023/08/11 04:56:38;;;;;;;9.10;6.60;;;;;15.40;101491.00;;;;5018979;28;20238;-67
2023/08/11 04:59:24;;;;;;;9.50;6.67;;;;;15.40;101494.00;;;;5026790;28;20255;-67
2023/08/11 05:02:12;;;;;;;10.33;6.97;;;;;15.50;101480.00;;;;5023324;28;20807;-67
2023/08/11 05:04:59;;;;;;;12.37;7.13;;;;;15.50;101496.00;;;;5020691;28;20310;-66
2023/08/11 05:07:45;;;;;;;13.43;7.60;;;;;15.60;101486.00;;;;5030868;28;20578;-66
2023/08/11 05:10:32;;;;;;;16.13;8.30;;;;;15.70;101488.00;;;;5045679;28;20251;-68
2023/08/11 05:13:19;;;;;;;11.07;7.47;;;;;15.70;101493.00;;;;5043600;28;20285;-66
2023/08/11 05:16:05;;;;;;;10.93;7.57;;;;;15.70;101497.00;;;;5025269;28;20648;-68
2023/08/11 05:18:54;;;;;;;11.67;7.67;;;;;15.80;101496.00;;;;5027945;28;20228;-67
2023/08/11 05:21:40;;;;;;;10.53;7.80;;;;;15.90;101503.00;;;;5018220;28;20233;-68
2023/08/11 05:24:27;;;;;;;13.17;8.23;;;;;15.90;101509.00;;;;5023108;28;20248;-67
2023/08/11 05:27:14;;;;;;;13.40;9.20;;;;;16.00;101505.00;;;;5035814;28;20238;-67
2023/08/11 05:30:01;;;;;;;13.33;9.67;;;;;16.00;101502.00;;;;5026768;28;20234;-67
2023/08/11 05:32:48;;;;;;;17.30;9.27;;;;;16.10;101496.00;;;;5038313;28;20224;-67
2023/08/11 05:35:35;;;;;;;13.97;9.13;;;;;16.20;101495.00;;;;5040427;28;20240;-66
2023/08/11 05:38:23;;;;;;;13.60;9.03;;;;;16.30;101502.00;;;;5019949;28;20242;-67
2023/08/11 05:41:10;;;;;;;10.87;8.70;;;;;16.30;101503.00;;;;5030149;28;20246;-67
2023/08/11 05:43:56;;;;;;;12.27;8.73;;;;;16.40;101498.00;;;;5014813;28;20245;-67
2023/08/11 05:46:43;;;;;;;13.23;8.80;;;;;16.40;101492.00;;;;5024946;28;20236;-67
2023/08/11 05:49:30;;;;;;;15.13;9.10;;;;;16.50;101499.00;;;;5023150;28;20249;-67
2023/08/11 05:52:17;;;;;;;12.77;8.73;;;;;16.50;101494.00;;;;5022319;28;20228;-67
2023/08/11 05:55:04;;;;;;;11.47;8.37;;;;;16.60;101490.00;;;;5020386;28;20963;-68
2023/08/11 05:57:50;;;;;;;14.40;8.97;;;;;16.60;101488.00;;;;5013773;28;20237;-67
2023/08/11 06:00:37;;;;;;;17.93;9.03;;;;;16.70;101494.00;;;;5024542;28;20244;-67
2023/08/11 06:03:29;;;;;;;12.67;8.60;;;;;16.70;101484.00;;;;5023198;28;20245;-67
2023/08/11 06:06:16;;;;;;;13.63;9.50;;;;;16.80;101479.00;;;;5025269;28;20265;-68
2023/08/11 06:09:04;;;;;;;12.97;8.03;;;;;16.80;101481.00;;;;5024447;28;20595;-68
2023/08/11 06:11:52;;;;;;;13.93;8.77;;;;;16.90;101479.00;;;;5029475;28;20646;-68
2023/08/11 06:14:39;;;;;;;11.87;8.30;;;;;17.00;101483.00;;;;5024735;28;20814;-67
2023/08/11 06:17:25;;;;;;;14.03;8.50;;;;;17.00;101484.00;;;;5027524;28;20228;-68
2023/08/11 06:20:13;;;;;;;11.57;8.37;;;;;17.00;101475.00;;;;5025253;28;20744;-69
2023/08/11 06:23:11;;;;;;;15.30;8.60;;;;;17.10;101475.00;;;;5012013;28;20245;-68
2023/08/11 06:26:00;;;;;;;11.10;8.00;;;;;17.20;101473.00;;;;5025413;28;20225;-68
2023/08/11 06:28:46;;;;;;;12.37;7.70;;;;;17.20;101471.00;;;;5033253;28;20233;-68
2023/08/11 06:31:32;;;;;;;9.60;7.30;;;;;17.30;101467.00;;;;5031937;28;20228;-68
2023/08/11 06:34:20;;;;;;;11.60;7.67;;;;;17.30;101464.00;;;;5039118;28;20229;-68
2023/08/11 06:37:06;;;;;;;12.63;7.60;;;;;17.40;101476.00;;;;5031181;28;20353;-68
2023/08/11 06:39:55;;;;;;;15.00;8.17;;;;;17.50;101476.00;;;;5017351;28;20225;-68
2023/08/11 06:42:43;;;;;;;12.37;8.10;;;;;17.60;101470.00;;;;5023068;28;20236;-69
2023/08/11 06:45:29;;;;;;;12.80;7.60;;;;;17.70;101474.00;;;;5019923;28;20229;-68
2023/08/11 06:48:16;;;;;;;12.27;7.80;;;;;17.70;101482.00;;;;5019806;28;20833;-69
2023/08/11 06:51:03;;;;;;;12.37;7.60;;;;;17.80;101477.00;;;;5010583;28;20225;-68
2023/08/11 06:53:49;;;;;;;10.17;7.27;;;;;17.90;101473.00;;;;5022361;28;20261;-69
2023/08/11 06:56:36;;;;;;;12.00;7.80;;;;;18.00;101470.00;;;;5027925;28;20228;-68
2023/08/11 06:59:25;;;;;;;10.37;6.73;;;;;18.10;101473.00;;;;5032678;28;20283;-67
2023/08/11 07:02:11;;;;;;;9.93;6.47;;;;;18.10;101479.00;;;;5019709;28;20241;-69
2023/08/11 07:04:58;;;;;;;9.93;6.27;;;;;18.20;101473.00;;;;5024468;28;20305;-68
2023/08/11 07:07:44;;;;;;;10.77;6.47;;;;;18.30;101478.00;;;;5030903;28;20241;-68
2023/08/11 07:10:30;;;;;;;9.77;5.60;;;;;18.30;101478.00;;;;5016994;28;20232;-68
2023/08/11 07:13:17;;;;;;;8.87;5.00;;;;;18.40;101475.00;;;;5024565;28;20730;-68
2023/08/11 07:16:05;;;;;;;6.80;4.73;;;;;18.50;101472.00;;;;5018098;28;20368;-68
2023/08/11 07:18:51;;;;;;;7.70;4.67;;;;;18.60;101476.00;;;;5024059;28;20245;-68
2023/08/11 07:21:37;;;;;;;6.50;4.80;;;;;18.70;101475.00;;;;5031472;28;20245;-68
2023/08/11 07:24:23;;;;;;;5.93;4.30;;;;;18.70;101481.00;;;;5025019;28;20616;-67
2023/08/11 07:27:10;;;;;;;6.90;4.80;;;;;18.80;101478.00;;;;5014221;28;20237;-68
2023/08/11 07:29:57;;;;;;;5.07;3.80;;;;;18.90;101480.00;;;;5033191;28;20353;-69
2023/08/11 07:32:44;;;;;;;6.00;3.93;;;;;18.90;101478.00;;;;5033588;28;20765;-68
2023/08/11 07:35:31;;;;;;;7.77;4.17;;;;;19.00;101479.00;;;;5018771;28;20727;-67
2023/08/11 07:38:20;;;;;;;6.57;3.73;;;;;19.10;101474.00;;;;5019045;28;20292;-67
2023/08/11 07:41:06;;;;;;;5.67;3.77;;;;;19.20;101472.00;;;;5019911;28;20256;-67
2023/08/11 07:43:53;;;;;;;5.37;4.00;;;;;19.30;101480.00;;;;5023073;28;20232;-68
2023/08/11 07:46:40;;;;;;;6.53;3.70;;;;;19.40;101483.00;;;;5024121;28;20736;-66
2023/08/11 07:49:28;;;;;;;5.13;3.30;;;;;19.50;101475.00;;;;5029485;28;20751;-67
2023/08/11 07:52:14;;;;;;;9.23;3.20;;;;;19.70;101479.00;;;;5029451;28;20290;-68
2023/08/11 07:55:01;;;;;;;4.40;3.30;;;;;19.90;101479.00;;;;5016077;28;20239;-67
2023/08/11 07:57:47;;;;;;;5.07;3.10;;;;;19.90;101471.00;;;;5017897;28;20239;-67
2023/08/11 08:00:34;;;;;;;6.20;3.70;;;;;20.10;101484.00;;;;5031210;28;20239;-65
2023/08/11 08:03:21;;;;;;;6.07;3.13;;;;;20.20;101483.00;;;;5021111;28;20359;-68
2023/08/11 08:06:09;;;;;;;5.93;2.93;;;;;20.30;101491.00;;;;5017187;28;20234;-68
2023/08/11 08:08:56;;;;;;;5.23;3.10;;;;;20.40;101488.00;;;;5022561;28;20222;-68
2023/08/11 08:11:43;;;;;;;4.37;3.20;;;;;20.40;101495.00;;;;5021420;28;20277;-67
2023/08/11 08:14:30;;;;;;;5.17;3.20;;;;;20.50;101481.00;;;;5019987;28;20244;-66
2023/08/11 08:17:16;;;;;;;5.63;3.00;;;;;20.60;101495.00;;;;5017444;28;20367;-68
2023/08/11 08:20:04;;;;;;;5.37;3.23;;;;;20.80;101488.00;;;;5023067;28;20745;-68
2023/08/11 08:22:52;;;;;;;4.10;3.00;;;;;21.00;101497.00;;;;5023248;28;20306;-68
2023/08/11 08:25:39;;;;;;;4.60;3.20;;;;;21.20;101490.00;;;;5024643;28;20242;-68
2023/08/11 08:28:26;;;;;;;4.20;3.23;;;;;21.40;101486.00;;;;5026520;28;20233;-67
2023/08/11 08:31:12;;;;;;;5.47;3.13;;;;;21.50;101488.00;;;;5026255;28;21034;-67
2023/08/11 08:33:58;;;;;;;4.50;3.20;;;;;21.60;101493.00;;;;5021202;28;20283;-68
2023/08/11 08:36:44;;;;;;;6.10;2.87;;;;;21.70;101487.00;;;;5022911;28;20224;-66
2023/08/11 08:39:32;;;;;;;4.37;3.03;;;;;21.80;101497.00;;;;5025390;28;20233;-68
2023/08/11 08:42:19;;;;;;;10.03;3.30;;;;;22.00;101491.00;;;;5021138;28;20339;-68
2023/08/11 08:45:08;;;;;;;4.20;3.00;;;;;22.10;101484.00;;;;5019104;28;20770;-67
2023/08/11 08:47:57;;;;;;;6.23;3.20;;;;;22.30;101487.00;;;;5023261;28;20299;-67
2023/08/11 08:50:44;;;;;;;5.63;3.00;;;;;22.30;101485.00;;;;5026742;28;20387;-65
2023/08/11 08:53:31;;;;;;;5.63;3.13;;;;;22.50;101491.00;;;;5022251;28;20238;-65
2023/08/11 08:56:20;;;;;;;7.63;3.23;;;;;22.60;101492.00;;;;5023240;28;20250;-68
2023/08/11 08:59:07;;;;;;;5.20;3.27;;;;;22.80;101495.00;;;;5020191;28;20253;-65
2023/08/11 09:01:55;;;;;;;6.80;3.20;;;;;22.90;101492.00;;;;5026073;28;20287;-68
2023/08/11 09:04:43;;;;;;;4.57;2.90;;;;;23.00;101492.00;;;;5009821;28;20369;-68
2023/08/11 09:07:30;;;;;;;7.87;3.20;;;;;23.10;101495.00;;;;5026105;28;20238;-68
2023/08/11 09:10:17;;;;;;;7.80;3.10;;;;;23.20;101495.00;;;;5020378;28;20611;-68
2023/08/11 09:13:05;;;;;;;4.93;2.97;;;;;23.40;101495.00;;;;5026377;28;20315;-68
2023/08/11 09:15:51;;;;;;;3.70;2.90;;;;;23.50;101493.00;;;;5021305;28;20226;-68
2023/08/11 09:18:38;;;;;;;4.87;3.10;;;;;23.70;101494.00;;;;5026940;28;20221;-68
2023/08/11 09:21:25;;;;;;;4.97;3.37;;;;;23.80;101490.00;;;;5023900;28;20229;-68
2023/08/11 09:24:12;;;;;;;4.73;3.37;;;;;24.00;101488.00;;;;5019612;28;20691;-67
2023/08/11 09:26:59;;;;;;;4.63;3.13;;;;;24.10;101489.00;;;;5020638;28;20280;-67
2023/08/11 09:29:49;;;;;;;4.50;3.07;;;;;24.30;101484.00;;;;5029157;28;20229;-69
2023/08/11 09:32:35;;;;;;;6.80;3.40;;;;;24.40;101488.00;;;;5022361;28;20230;-68
2023/08/11 09:35:24;;;;;;;5.67;3.10;;;;;24.50;101484.00;;;;5019983;28;20233;-67
2023/08/11 09:38:11;;;;;;;6.07;3.30;;;;;24.60;101483.00;;;;5021689;28;20233;-67
2023/08/11 09:41:01;;;;;;;7.90;3.50;;;;;24.60;101482.00;;;;5024608;28;20740;-68
2023/08/11 09:43:50;;;;;;;6.53;3.50;;;;;24.70;101492.00;;;;5021608;28;20288;-68
2023/08/11 09:46:39;;;;;;;4.67;3.03;;;;;24.90;101483.00;;;;5022575;28;20226;-68
2023/08/11 09:49:26;;;;;;;5.63;3.43;;;;;25.00;101494.00;;;;5023287;28;20234;-68
2023/08/11 09:52:13;;;;;;;5.40;3.03;;;;;25.10;101498.00;;;;5021265;28;20248;-68
2023/08/11 09:54:59;;;;;;;6.35;3.03;;;;;25.30;101492.00;;;;5029159;28;20302;-68
2023/08/11 09:57:47;;;;;;;5.93;3.50;;;;;25.30;101494.00;;;;5022642;28;20315;-67
2023/08/11 10:00:35;;;;;;;6.07;3.80;;;;;25.50;101495.00;;;;5024987;28;20718;-68
2023/08/11 10:03:28;;;;;;;4.35;3.20;;;;;25.60;101490.00;;;;5025555;28;20249;-68
2023/08/11 10:06:20;;;;;;;8.85;3.75;;;;;25.70;101498.00;;;;5012529;28;20308;-68
2023/08/11 10:09:12;;;;;;;5.80;3.28;;;;;25.80;101502.00;;;;5027349;28;20233;-68
2023/08/11 10:12:00;;;;;;;5.18;3.28;;;;;25.90;101493.00;;;;5020755;28;20238;-68
2023/08/11 10:14:46;;;;;;;4.85;2.88;;;;;26.10;101499.00;;;;5017671;28;20229;-69
2023/08/11 10:17:33;;;;;;;6.97;3.30;;;;;26.10;101495.00;;;;5024765;28;20237;-66
2023/08/11 10:20:22;;;;;;;6.82;3.10;;;;;26.20;101492.00;;;;5028558;28;20565;-68
2023/08/11 10:23:09;;;;;;;5.95;3.22;;;;;26.20;101499.00;;;;5036465;28;20305;-68
2023/08/11 10:25:56;;;;;;;6.68;3.20;;;;;26.20;101493.00;;;;5030721;28;20343;-68
2023/08/11 10:28:42;;;;;;;6.43;3.08;;;;;26.30;101489.00;;;;5028852;28;20233;-68
2023/08/11 10:31:32;;;;;;;3.85;3.17;;;;;26.30;101488.00;;;;5021590;28;20225;-68
2023/08/11 10:34:22;;;;;;;5.72;3.40;;;;;26.40;101493.00;;;;5026261;28;20225;-66
2023/08/11 10:37:09;;;;;;;4.75;3.15;;;;;26.60;101487.00;;;;5024619;28;20245;-68
2023/08/11 10:40:04;;;;;;;6.78;3.00;;;;;26.80;101468.00;;;;5023559;28;20786;-68
2023/08/11 10:42:51;;;;;;;5.65;3.03;;;;;26.90;101485.00;;;;5040588;28;20228;-68
2023/08/11 10:45:39;;;;;;;3.67;2.70;;;;;27.00;101473.00;;;;5041888;28;20729;-68
2023/08/11 10:48:25;;;;;;;5.63;2.90;;;;;27.10;101471.00;;;;5044710;28;20225;-68
2023/08/11 10:51:26;;;;;;;7.75;3.65;;;;;27.20;101464.00;;;;5042898;28;20709;-67
2023/08/11 10:54:23;;;;;;;3.63;3.15;;;;;27.40;101472.00;;;;5044211;28;20231;-68
2023/08/11 10:57:09;;;;;;;4.10;2.95;;;;;27.60;101467.00;;;;5043986;28;20279;-68
2023/08/11 10:59:56;;;;;;;5.60;2.70;;;;;27.50;101472.00;;;;5041221;28;20236;-68
2023/08/11 11:02:43;;;;;;;4.10;2.80;;;;;27.60;101463.00;;;;5044759;28;20240;-68
2023/08/11 11:05:30;;;;;;;4.40;2.97;;;;;27.70;101465.00;;;;5044268;28;20319;-67
2023/08/11 11:08:17;;;;;;;4.38;2.70;;;;;27.80;101459.00;;;;5045165;28;20219;-68
2023/08/11 11:11:05;;;;;;;5.03;2.70;;;;;27.80;101462.00;;;;5043889;28;20347;-69
2023/08/11 11:13:52;;;;;;;6.18;2.92;;;;;27.70;101456.00;;;;5034447;28;20241;-68
2023/08/11 11:16:40;;;;;;;4.97;2.90;;;;;28.00;101470.00;;;;5038972;28;20604;-67
2023/08/11 11:19:26;;;;;;;3.33;2.97;;;;;28.20;101476.00;;;;5038027;28;20399;-68
2023/08/11 11:22:14;;;;;;;4.20;2.95;;;;;28.30;101458.00;;;;5039406;28;20286;-69
2023/08/11 11:25:02;;;;;;;22.42;9.80;;;;;28.40;101459.00;;;;5035797;28;20249;-69
2023/08/11 11:27:50;;;;;;;15.48;7.07;;;;;28.50;101451.00;;;;5039716;28;20228;-69
2023/08/11 11:30:38;;;;;;;18.50;8.82;;;;;28.70;101463.00;;;;5042877;28;20717;-69
2023/08/11 11:33:25;;;;;;;12.88;5.60;;;;;28.70;101460.00;;;;5044139;28;20591;-69
2023/08/11 11:36:13;;;;;;;9.50;4.22;;;;;28.80;101465.00;;;;5034114;28;20229;-68
2023/08/11 11:39:00;;;;;;;15.10;6.70;;;;;28.90;101473.00;;;;5043996;28;20599;-69
2023/08/11 11:41:50;;;;;;;12.95;6.05;;;;;28.90;101476.00;;;;5043857;28;20229;-69
2023/08/11 11:44:40;;;;;;;10.20;4.93;;;;;28.90;101478.00;;;;5043320;28;20232;-68
2023/08/11 11:47:27;;;;;;;7.90;3.28;;;;;28.90;101476.00;;;;5035685;28;20649;-68
2023/08/11 11:50:14;;;;;;;4.95;3.50;;;;;29.10;101471.00;;;;5033864;28;20746;-69
2023/08/11 11:53:00;;;;;;;6.30;3.10;;;;;29.10;101468.00;;;;5024650;28;20237;-68
2023/08/11 11:55:48;;;;;;;4.43;3.15;;;;;29.20;101478.00;;;;5023861;28;20291;-68
2023/08/11 11:58:38;;;;;;;4.07;2.78;;;;;29.20;101472.00;;;;5024455;28;20226;-68
2023/08/11 12:01:28;;;;;;;4.15;2.70;;;;;29.10;101467.00;;;;5031342;28;20229;-68
2023/08/11 12:04:14;;;;;;;4.80;3.20;;;;;29.20;101473.00;;;;5021249;28;20240;-68
2023/08/11 12:07:01;;;;;;;3.35;2.70;;;;;29.30;101475.00;;;;5023350;28;20728;-68
2023/08/11 12:09:51;;;;;;;4.03;3.10;;;;;29.20;101471.00;;;;5017731;28;20244;-68
2023/08/11 12:12:37;;;;;;;4.85;2.95;;;;;29.30;101467.00;;;;5028029;28;20233;-68
2023/08/11 12:15:24;;;;;;;7.22;3.05;;;;;29.40;101467.00;;;;5027517;28;20233;-69
2023/08/11 12:18:12;;;;;;;5.15;3.17;;;;;29.50;101458.00;;;;5025685;28;20816;-65
2023/08/11 12:20:59;;;;;;;5.28;3.00;;;;;29.70;101458.00;;;;5024901;28;20604;-69
2023/08/11 12:23:46;;;;;;;5.07;2.75;;;;;29.90;101468.00;;;;5024589;28;20237;-68
2023/08/11 12:26:32;;;;;;;3.45;2.80;;;;;30.00;101470.00;;;;5019628;28;25588;-66
2023/08/11 12:29:19;;;;;;;4.03;2.58;;;;;30.10;101460.00;;;;5022305;28;20237;-66
2023/08/11 12:32:05;;;;;;;3.33;2.70;;;;;30.10;101467.00;;;;5021150;28;20229;-66
2023/08/11 12:34:53;;;;;;;5.18;2.83;;;;;30.20;101458.00;;;;5043794;28;20307;-67
2023/08/11 12:37:39;;;;;;;5.65;2.83;;;;;30.20;101454.00;;;;5030713;28;20249;-67
2023/08/11 12:40:28;;;;;;;4.05;2.78;;;;;30.50;101458.00;;;;5024003;28;20221;-66
2023/08/11 12:43:15;;;;;;;3.28;2.58;;;;;30.60;101453.00;;;;5029002;28;20717;-67
2023/08/11 12:46:01;;;;;;;3.55;2.80;;;;;30.80;101454.00;;;;5025369;28;20241;-66
2023/08/11 12:48:48;;;;;;;4.72;2.75;;;;;31.00;101456.00;;;;5023675;28;20240;-67
2023/08/11 12:51:36;;;;;;;4.50;2.63;;;;;31.00;101456.00;;;;5023665;28;20226;-66
2023/08/11 12:54:23;;;;;;;3.25;2.80;;;;;31.10;101448.00;;;;5022607;28;20284;-66
2023/08/11 12:57:09;;;;;;;5.05;2.60;;;;;31.20;101449.00;;;;5025261;28;20237;-67
2023/08/11 12:59:56;;;;;;;5.20;3.00;;;;;31.20;101456.00;;;;5015816;28;20234;-67
2023/08/11 13:02:43;;;;;;;6.95;3.10;;;;;31.20;101441.00;;;;5023840;28;20226;-67
2023/08/11 13:05:30;;;;;;;6.70;3.15;;;;;31.30;101454.00;;;;5020536;28;20256;-68
2023/08/11 13:08:18;;;;;;;4.72;3.17;;;;;31.20;101450.00;;;;5024634;28;20245;-67
2023/08/11 13:11:04;;;;;;;5.90;3.00;;;;;31.30;101453.00;;;;5020109;28;20229;-66
2023/08/11 13:13:51;;;;;;;4.22;2.90;;;;;31.40;101449.00;;;;5020943;28;20237;-67
2023/08/11 13:16:37;;;;;;;4.20;2.88;;;;;31.40;101450.00;;;;5026972;28;20257;-68
2023/08/11 13:19:24;;;;;;;11.48;3.15;;;;;31.50;101443.00;;;;5033518;28;20233;-68
2023/08/11 13:22:11;;;;;;;5.35;3.15;;;;;31.50;101444.00;;;;5027958;28;20280;-68
2023/08/11 13:24:59;;;;;;;5.35;3.20;;;;;31.70;101439.00;;;;5031577;28;20280;-68
2023/08/11 13:27:45;;;;;;;8.48;3.20;;;;;31.70;101449.00;;;;5029219;28;20245;-68
2023/08/11 13:30:31;;;;;;;5.10;3.28;;;;;31.70;101442.00;;;;5035103;28;20771;-70
2023/08/11 13:33:18;;;;;;;6.55;3.03;;;;;31.60;101439.00;;;;5043713;28;20309;-66
2023/08/11 13:36:05;;;;;;;3.72;2.90;;;;;31.60;101445.00;;;;5055902;28;20233;-68
2023/08/11 13:38:51;;;;;;;7.05;3.20;;;;;31.60;101449.00;;;;5048952;28;20229;-68
2023/08/11 13:41:40;;;;;;;10.10;3.50;;;;;31.30;101438.00;;;;5056361;28;20343;-68
2023/08/11 13:44:26;;;;;;;3.90;3.10;;;;;31.40;101439.00;;;;5045495;28;20309;-67